sensor_id;sensor_type;location;lat;lon;timestamp;P1;durP1;ratioP1;P2;durP2;ratioP2
53843;SDS011;39744;53.314;5.710;2023-05-07T00:00:01;38.67;;;22.13;;
53843;SDS011;39744;53.314;5.710;2023-05-07T00:02:28;41.38;;;22.38;;
53843;SDS011;39744;53.314;5.710;2023-05-07T00:04:54;42.75;;;22.98;;
53843;SDS011;39744;53.314;5.710;2023-05-07T00:07:21;51.75;;;23.85;;
53843;SDS011;39744;53.314;5.710;2023-05-07T00:09:46;40.72;;;22.63;;
53843;SDS011;39744;53.314;5.710;2023-05-07T00:12:12;44.15;;;23.95;;
53843;SDS011;39744;53.314;5.710;2023-05-07T00:14:39;49.50;;;25.33;;
53843;SDS011;39744;53.314;5.710;2023-05-07T00:17:05;50.40;;;26.08;;
53843;SDS011;39744;53.314;5.710;2023-05-07T00:19:31;58.30;;;27.30;;
53843;SDS011;39744;53.314;5.710;2023-05-07T00:21:57;43.50;;;25.15;;
53843;SDS011;39744;53.314;5.710;2023-05-07T00:24:23;46.95;;;22.95;;
53843;SDS011;39744;53.314;5.710;2023-05-07T00:26:49;59.90;;;27.73;;
53843;SDS011;39744;53.314;5.710;2023-05-07T00:29:16;55.83;;;27.52;;
53843;SDS011;39744;53.314;5.710;2023-05-07T00:31:42;53.92;;;28.08;;
53843;SDS011;39744;53.314;5.710;2023-05-07T00:34:08;55.17;;;27.33;;
53843;SDS011;39744;53.314;5.710;2023-05-07T00:36:34;77.03;;;30.83;;
53843;SDS011;39744;53.314;5.710;2023-05-07T00:39:00;86.35;;;29.90;;
53843;SDS011;39744;53.314;5.710;2023-05-07T00:41:28;70.85;;;29.88;;
53843;SDS011;39744;53.314;5.710;2023-05-07T00:43:55;71.93;;;30.48;;
53843;SDS011;39744;53.314;5.710;2023-05-07T00:46:22;58.53;;;27.67;;
53843;SDS011;39744;53.314;5.710;2023-05-07T00:48:49;76.50;;;29.65;;
53843;SDS011;39744;53.314;5.710;2023-05-07T00:51:16;66.63;;;29.98;;
53843;SDS011;39744;53.314;5.710;2023-05-07T00:53:43;64.55;;;29.48;;
53843;SDS011;39744;53.314;5.710;2023-05-07T00:56:09;75.97;;;31.63;;
53843;SDS011;39744;53.314;5.710;2023-05-07T00:58:36;66.72;;;29.48;;
53843;SDS011;39744;53.314;5.710;2023-05-07T01:01:02;79.82;;;28.83;;
53843;SDS011;39744;53.314;5.710;2023-05-07T01:03:28;75.00;;;30.10;;
53843;SDS011;39744;53.314;5.710;2023-05-07T01:05:54;57.22;;;28.27;;
53843;SDS011;39744;53.314;5.710;2023-05-07T01:08:22;60.10;;;29.90;;
53843;SDS011;39744;53.314;5.710;2023-05-07T01:10:49;59.97;;;28.88;;
53843;SDS011;39744;53.314;5.710;2023-05-07T01:13:16;75.97;;;31.40;;
53843;SDS011;39744;53.314;5.710;2023-05-07T01:15:43;62.85;;;31.27;;
53843;SDS011;39744;53.314;5.710;2023-05-07T01:18:09;78.05;;;32.20;;
53843;SDS011;39744;53.314;5.710;2023-05-07T01:20:35;69.40;;;32.13;;
53843;SDS011;39744;53.314;5.710;2023-05-07T01:23:01;67.03;;;31.80;;
53843;SDS011;39744;53.314;5.710;2023-05-07T01:25:27;90.30;;;33.45;;
53843;SDS011;39744;53.314;5.710;2023-05-07T01:27:54;55.70;;;30.50;;
53843;SDS011;39744;53.314;5.710;2023-05-07T01:30:20;107.18;;;35.92;;
53843;SDS011;39744;53.314;5.710;2023-05-07T01:32:51;74.72;;;32.28;;
53843;SDS011;39744;53.314;5.710;2023-05-07T01:35:22;62.08;;;30.08;;
53843;SDS011;39744;53.314;5.710;2023-05-07T01:37:48;76.20;;;33.40;;
53843;SDS011;39744;53.314;5.710;2023-05-07T01:40:15;75.53;;;33.85;;
53843;SDS011;39744;53.314;5.710;2023-05-07T01:42:42;76.95;;;33.92;;
53843;SDS011;39744;53.314;5.710;2023-05-07T01:45:09;68.10;;;33.35;;
53843;SDS011;39744;53.314;5.710;2023-05-07T01:47:35;97.05;;;35.33;;
53843;SDS011;39744;53.314;5.710;2023-05-07T01:50:02;69.43;;;31.90;;
53843;SDS011;39744;53.314;5.710;2023-05-07T01:52:28;78.60;;;35.10;;
53843;SDS011;39744;53.314;5.710;2023-05-07T01:54:55;78.10;;;34.58;;
53843;SDS011;39744;53.314;5.710;2023-05-07T01:57:21;67.32;;;32.15;;
53843;SDS011;39744;53.314;5.710;2023-05-07T01:59:48;66.22;;;33.97;;
53843;SDS011;39744;53.314;5.710;2023-05-07T02:02:14;69.80;;;33.45;;
53843;SDS011;39744;53.314;5.710;2023-05-07T02:04:40;77.68;;;35.85;;
53843;SDS011;39744;53.314;5.710;2023-05-07T02:07:06;74.40;;;34.55;;
53843;SDS011;39744;53.314;5.710;2023-05-07T02:09:32;75.25;;;35.28;;
53843;SDS011;39744;53.314;5.710;2023-05-07T02:11:58;83.45;;;35.25;;
53843;SDS011;39744;53.314;5.710;2023-05-07T02:14:24;89.43;;;37.17;;
53843;SDS011;39744;53.314;5.710;2023-05-07T02:16:51;90.95;;;36.05;;
53843;SDS011;39744;53.314;5.710;2023-05-07T02:19:17;101.72;;;38.00;;
53843;SDS011;39744;53.314;5.710;2023-05-07T02:21:43;65.53;;;32.92;;
53843;SDS011;39744;53.314;5.710;2023-05-07T02:24:09;120.10;;;39.45;;
53843;SDS011;39744;53.314;5.710;2023-05-07T02:26:35;75.50;;;35.47;;
53843;SDS011;39744;53.314;5.710;2023-05-07T02:29:01;83.63;;;35.80;;
53843;SDS011;39744;53.314;5.710;2023-05-07T02:31:27;79.57;;;35.92;;
53843;SDS011;39744;53.314;5.710;2023-05-07T02:33:53;79.70;;;38.05;;
53843;SDS011;39744;53.314;5.710;2023-05-07T02:36:19;84.78;;;37.85;;
53843;SDS011;39744;53.314;5.710;2023-05-07T02:38:45;111.18;;;41.75;;
53843;SDS011;39744;53.314;5.710;2023-05-07T02:41:11;114.03;;;42.35;;
53843;SDS011;39744;53.314;5.710;2023-05-07T02:43:37;79.82;;;35.45;;
53843;SDS011;39744;53.314;5.710;2023-05-07T02:46:04;81.10;;;37.33;;
53843;SDS011;39744;53.314;5.710;2023-05-07T02:48:30;104.00;;;40.85;;
53843;SDS011;39744;53.314;5.710;2023-05-07T02:50:57;99.10;;;37.80;;
53843;SDS011;39744;53.314;5.710;2023-05-07T02:53:23;97.97;;;40.45;;
53843;SDS011;39744;53.314;5.710;2023-05-07T02:55:51;89.15;;;38.75;;
53843;SDS011;39744;53.314;5.710;2023-05-07T02:58:17;89.30;;;38.42;;
53843;SDS011;39744;53.314;5.710;2023-05-07T03:00:43;112.65;;;42.20;;
53843;SDS011;39744;53.314;5.710;2023-05-07T03:03:09;83.22;;;38.90;;
53843;SDS011;39744;53.314;5.710;2023-05-07T03:05:36;79.57;;;37.40;;
53843;SDS011;39744;53.314;5.710;2023-05-07T03:08:02;81.55;;;37.40;;
53843;SDS011;39744;53.314;5.710;2023-05-07T03:10:29;81.90;;;35.38;;
53843;SDS011;39744;53.314;5.710;2023-05-07T03:12:55;127.60;;;41.47;;
53843;SDS011;39744;53.314;5.710;2023-05-07T03:15:21;86.60;;;35.28;;
53843;SDS011;39744;53.314;5.710;2023-05-07T03:17:47;78.85;;;35.08;;
53843;SDS011;39744;53.314;5.710;2023-05-07T03:20:13;80.82;;;35.15;;
53843;SDS011;39744;53.314;5.710;2023-05-07T03:22:40;66.50;;;33.22;;
53843;SDS011;39744;53.314;5.710;2023-05-07T03:25:06;80.80;;;35.70;;
53843;SDS011;39744;53.314;5.710;2023-05-07T03:27:32;80.68;;;34.17;;
53843;SDS011;39744;53.314;5.710;2023-05-07T03:29:59;73.05;;;33.20;;
53843;SDS011;39744;53.314;5.710;2023-05-07T03:32:25;84.30;;;35.83;;
53843;SDS011;39744;53.314;5.710;2023-05-07T03:34:51;85.35;;;34.30;;
53843;SDS011;39744;53.314;5.710;2023-05-07T03:37:17;77.60;;;33.55;;
53843;SDS011;39744;53.314;5.710;2023-05-07T03:39:43;76.80;;;34.15;;
53843;SDS011;39744;53.314;5.710;2023-05-07T03:42:09;66.93;;;32.58;;
53843;SDS011;39744;53.314;5.710;2023-05-07T03:44:35;84.63;;;35.53;;
53843;SDS011;39744;53.314;5.710;2023-05-07T03:47:02;73.72;;;34.30;;
53843;SDS011;39744;53.314;5.710;2023-05-07T03:49:28;79.18;;;35.17;;
53843;SDS011;39744;53.314;5.710;2023-05-07T03:51:54;94.50;;;36.92;;
53843;SDS011;39744;53.314;5.710;2023-05-07T03:54:20;93.00;;;37.03;;
53843;SDS011;39744;53.314;5.710;2023-05-07T03:56:46;89.03;;;37.38;;
53843;SDS011;39744;53.314;5.710;2023-05-07T03:59:13;74.60;;;34.35;;
53843;SDS011;39744;53.314;5.710;2023-05-07T04:01:39;78.97;;;36.17;;
53843;SDS011;39744;53.314;5.710;2023-05-07T04:04:05;75.72;;;34.05;;
53843;SDS011;39744;53.314;5.710;2023-05-07T04:06:31;74.85;;;35.42;;
53843;SDS011;39744;53.314;5.710;2023-05-07T04:08:57;87.53;;;37.45;;
53843;SDS011;39744;53.314;5.710;2023-05-07T04:11:23;97.43;;;37.55;;
53843;SDS011;39744;53.314;5.710;2023-05-07T04:13:50;81.93;;;37.10;;
53843;SDS011;39744;53.314;5.710;2023-05-07T04:16:16;82.28;;;36.60;;
53843;SDS011;39744;53.314;5.710;2023-05-07T04:18:42;78.90;;;36.22;;
53843;SDS011;39744;53.314;5.710;2023-05-07T04:21:18;94.00;;;38.55;;
53843;SDS011;39744;53.314;5.710;2023-05-07T04:23:44;76.40;;;35.42;;
53843;SDS011;39744;53.314;5.710;2023-05-07T04:26:10;81.72;;;36.92;;
53843;SDS011;39744;53.314;5.710;2023-05-07T04:28:36;78.47;;;34.88;;
53843;SDS011;39744;53.314;5.710;2023-05-07T04:31:02;70.80;;;34.78;;
53843;SDS011;39744;53.314;5.710;2023-05-07T04:33:28;85.75;;;38.42;;
53843;SDS011;39744;53.314;5.710;2023-05-07T04:35:55;98.78;;;38.08;;
53843;SDS011;39744;53.314;5.710;2023-05-07T04:38:21;80.10;;;36.97;;
53843;SDS011;39744;53.314;5.710;2023-05-07T04:40:48;74.72;;;35.25;;
53843;SDS011;39744;53.314;5.710;2023-05-07T04:43:14;79.07;;;37.88;;
53843;SDS011;39744;53.314;5.710;2023-05-07T04:45:41;92.38;;;38.55;;
53843;SDS011;39744;53.314;5.710;2023-05-07T04:48:08;79.05;;;36.92;;
53843;SDS011;39744;53.314;5.710;2023-05-07T04:50:34;77.80;;;35.92;;
53843;SDS011;39744;53.314;5.710;2023-05-07T04:53:00;85.90;;;37.88;;
53843;SDS011;39744;53.314;5.710;2023-05-07T04:55:26;97.55;;;38.70;;
53843;SDS011;39744;53.314;5.710;2023-05-07T04:57:52;124.43;;;41.28;;
53843;SDS011;39744;53.314;5.710;2023-05-07T05:00:18;101.05;;;40.22;;
53843;SDS011;39744;53.314;5.710;2023-05-07T05:02:45;91.25;;;39.15;;
53843;SDS011;39744;53.314;5.710;2023-05-07T05:05:11;83.43;;;38.33;;
53843;SDS011;39744;53.314;5.710;2023-05-07T05:07:37;96.53;;;39.58;;
53843;SDS011;39744;53.314;5.710;2023-05-07T05:10:04;109.82;;;41.47;;
53843;SDS011;39744;53.314;5.710;2023-05-07T05:12:31;93.00;;;38.70;;
53843;SDS011;39744;53.314;5.710;2023-05-07T05:14:57;95.95;;;40.70;;
53843;SDS011;39744;53.314;5.710;2023-05-07T05:17:23;97.85;;;39.90;;
53843;SDS011;39744;53.314;5.710;2023-05-07T05:19:49;93.35;;;39.58;;
53843;SDS011;39744;53.314;5.710;2023-05-07T05:22:16;95.78;;;41.13;;
53843;SDS011;39744;53.314;5.710;2023-05-07T05:24:42;100.30;;;39.28;;
53843;SDS011;39744;53.314;5.710;2023-05-07T05:27:08;95.20;;;39.00;;
53843;SDS011;39744;53.314;5.710;2023-05-07T05:29:34;110.43;;;43.08;;
53843;SDS011;39744;53.314;5.710;2023-05-07T05:32:00;90.72;;;38.47;;
53843;SDS011;39744;53.314;5.710;2023-05-07T05:34:26;87.85;;;40.88;;
53843;SDS011;39744;53.314;5.710;2023-05-07T05:36:52;84.07;;;37.47;;
53843;SDS011;39744;53.314;5.710;2023-05-07T05:39:18;82.90;;;38.30;;
53843;SDS011;39744;53.314;5.710;2023-05-07T05:41:44;83.43;;;38.35;;
53843;SDS011;39744;53.314;5.710;2023-05-07T05:44:10;103.05;;;39.60;;
53843;SDS011;39744;53.314;5.710;2023-05-07T05:46:36;90.72;;;38.67;;
53843;SDS011;39744;53.314;5.710;2023-05-07T05:49:02;83.40;;;38.97;;
53843;SDS011;39744;53.314;5.710;2023-05-07T05:51:28;90.57;;;39.05;;
53843;SDS011;39744;53.314;5.710;2023-05-07T05:53:55;83.40;;;38.03;;
53843;SDS011;39744;53.314;5.710;2023-05-07T05:56:21;91.85;;;39.17;;
53843;SDS011;39744;53.314;5.710;2023-05-07T05:58:47;79.03;;;37.90;;
53843;SDS011;39744;53.314;5.710;2023-05-07T06:01:13;92.03;;;39.22;;
53843;SDS011;39744;53.314;5.710;2023-05-07T06:03:39;81.32;;;36.80;;
53843;SDS011;39744;53.314;5.710;2023-05-07T06:11:35;84.43;;;37.92;;
53843;SDS011;39744;53.314;5.710;2023-05-07T06:14:01;68.53;;;34.83;;
53843;SDS011;39744;53.314;5.710;2023-05-07T06:16:27;73.22;;;35.65;;
53843;SDS011;39744;53.314;5.710;2023-05-07T06:18:53;78.82;;;36.92;;
53843;SDS011;39744;53.314;5.710;2023-05-07T06:21:19;77.35;;;36.47;;
53843;SDS011;39744;53.314;5.710;2023-05-07T06:23:45;74.43;;;35.42;;
53843;SDS011;39744;53.314;5.710;2023-05-07T06:26:11;74.60;;;35.90;;
53843;SDS011;39744;53.314;5.710;2023-05-07T06:28:37;73.45;;;35.10;;
53843;SDS011;39744;53.314;5.710;2023-05-07T06:31:13;74.82;;;36.92;;
53843;SDS011;39744;53.314;5.710;2023-05-07T06:33:39;84.15;;;37.15;;
53843;SDS011;39744;53.314;5.710;2023-05-07T06:36:05;69.55;;;35.45;;
53843;SDS011;39744;53.314;5.710;2023-05-07T06:38:31;64.35;;;35.10;;
53843;SDS011;39744;53.314;5.710;2023-05-07T06:40:58;66.82;;;35.28;;
53843;SDS011;39744;53.314;5.710;2023-05-07T06:43:24;68.90;;;33.40;;
53843;SDS011;39744;53.314;5.710;2023-05-07T06:45:50;69.25;;;35.33;;
53843;SDS011;39744;53.314;5.710;2023-05-07T06:48:16;67.28;;;35.05;;
53843;SDS011;39744;53.314;5.710;2023-05-07T06:50:42;69.35;;;34.13;;
53843;SDS011;39744;53.314;5.710;2023-05-07T06:53:08;63.30;;;33.78;;
53843;SDS011;39744;53.314;5.710;2023-05-07T06:55:34;64.20;;;32.90;;
53843;SDS011;39744;53.314;5.710;2023-05-07T06:58:00;68.85;;;34.45;;
53843;SDS011;39744;53.314;5.710;2023-05-07T07:00:26;65.28;;;34.05;;
53843;SDS011;39744;53.314;5.710;2023-05-07T07:02:53;66.43;;;34.08;;
53843;SDS011;39744;53.314;5.710;2023-05-07T07:05:19;61.05;;;32.63;;
53843;SDS011;39744;53.314;5.710;2023-05-07T07:07:45;59.63;;;33.05;;
53843;SDS011;39744;53.314;5.710;2023-05-07T07:10:18;57.75;;;32.65;;
53843;SDS011;39744;53.314;5.710;2023-05-07T07:12:44;60.88;;;31.75;;
53843;SDS011;39744;53.314;5.710;2023-05-07T07:15:10;66.07;;;32.90;;
53843;SDS011;39744;53.314;5.710;2023-05-07T07:17:36;61.22;;;31.73;;
53843;SDS011;39744;53.314;5.710;2023-05-07T07:20:02;60.10;;;31.02;;
53843;SDS011;39744;53.314;5.710;2023-05-07T07:22:28;59.15;;;31.45;;
53843;SDS011;39744;53.314;5.710;2023-05-07T07:24:54;53.35;;;30.75;;
53843;SDS011;39744;53.314;5.710;2023-05-07T07:27:20;56.00;;;30.40;;
53843;SDS011;39744;53.314;5.710;2023-05-07T07:29:46;60.50;;;31.52;;
53843;SDS011;39744;53.314;5.710;2023-05-07T07:32:13;56.55;;;31.05;;
53843;SDS011;39744;53.314;5.710;2023-05-07T07:34:39;56.63;;;30.75;;
53843;SDS011;39744;53.314;5.710;2023-05-07T07:37:05;55.30;;;31.02;;
53843;SDS011;39744;53.314;5.710;2023-05-07T07:39:31;54.60;;;31.42;;
53843;SDS011;39744;53.314;5.710;2023-05-07T07:41:57;51.50;;;29.52;;
53843;SDS011;39744;53.314;5.710;2023-05-07T07:44:23;52.60;;;31.52;;
53843;SDS011;39744;53.314;5.710;2023-05-07T07:46:50;54.92;;;29.90;;
53843;SDS011;39744;53.314;5.710;2023-05-07T07:49:16;58.17;;;31.02;;
53843;SDS011;39744;53.314;5.710;2023-05-07T07:51:42;53.38;;;30.52;;
53843;SDS011;39744;53.314;5.710;2023-05-07T07:54:08;57.15;;;30.88;;
53843;SDS011;39744;53.314;5.710;2023-05-07T07:56:34;52.28;;;30.25;;
53843;SDS011;39744;53.314;5.710;2023-05-07T07:59:03;51.63;;;28.73;;
53843;SDS011;39744;53.314;5.710;2023-05-07T08:01:32;53.97;;;30.67;;
53843;SDS011;39744;53.314;5.710;2023-05-07T08:03:58;50.05;;;29.00;;
53843;SDS011;39744;53.314;5.710;2023-05-07T08:06:24;54.03;;;29.33;;
53843;SDS011;39744;53.314;5.710;2023-05-07T08:08:53;47.10;;;27.67;;
53843;SDS011;39744;53.314;5.710;2023-05-07T08:11:20;52.80;;;28.67;;
53843;SDS011;39744;53.314;5.710;2023-05-07T08:13:46;49.90;;;28.23;;
53843;SDS011;39744;53.314;5.710;2023-05-07T08:16:12;51.45;;;28.80;;
53843;SDS011;39744;53.314;5.710;2023-05-07T08:18:39;49.22;;;28.75;;
53843;SDS011;39744;53.314;5.710;2023-05-07T08:21:05;48.13;;;27.98;;
53843;SDS011;39744;53.314;5.710;2023-05-07T08:23:31;45.15;;;27.50;;
53843;SDS011;39744;53.314;5.710;2023-05-07T08:25:59;51.13;;;29.48;;
53843;SDS011;39744;53.314;5.710;2023-05-07T08:28:25;49.90;;;28.80;;
53843;SDS011;39744;53.314;5.710;2023-05-07T08:30:51;51.13;;;29.50;;
53843;SDS011;39744;53.314;5.710;2023-05-07T08:33:17;44.65;;;27.65;;
53843;SDS011;39744;53.314;5.710;2023-05-07T08:35:43;46.85;;;28.10;;
53843;SDS011;39744;53.314;5.710;2023-05-07T08:38:09;46.45;;;26.85;;
53843;SDS011;39744;53.314;5.710;2023-05-07T08:40:39;44.17;;;27.88;;
53843;SDS011;39744;53.314;5.710;2023-05-07T08:43:08;44.92;;;27.48;;
53843;SDS011;39744;53.314;5.710;2023-05-07T08:45:37;45.35;;;27.95;;
53843;SDS011;39744;53.314;5.710;2023-05-07T08:48:07;45.60;;;27.35;;
53843;SDS011;39744;53.314;5.710;2023-05-07T08:50:38;42.95;;;25.98;;
53843;SDS011;39744;53.314;5.710;2023-05-07T08:53:04;37.28;;;25.08;;
53843;SDS011;39744;53.314;5.710;2023-05-07T08:55:31;36.03;;;24.08;;
53843;SDS011;39744;53.314;5.710;2023-05-07T08:57:58;33.85;;;22.35;;
53843;SDS011;39744;53.314;5.710;2023-05-07T09:00:24;37.15;;;25.10;;
53843;SDS011;39744;53.314;5.710;2023-05-07T09:02:50;36.03;;;24.50;;
53843;SDS011;39744;53.314;5.710;2023-05-07T09:05:16;34.92;;;24.10;;
53843;SDS011;39744;53.314;5.710;2023-05-07T09:07:42;33.42;;;23.27;;
53843;SDS011;39744;53.314;5.710;2023-05-07T09:10:11;34.92;;;22.20;;
53843;SDS011;39744;53.314;5.710;2023-05-07T09:12:38;32.70;;;21.83;;
53843;SDS011;39744;53.314;5.710;2023-05-07T09:15:04;32.47;;;21.35;;
53843;SDS011;39744;53.314;5.710;2023-05-07T09:17:30;29.85;;;21.80;;
53843;SDS011;39744;53.314;5.710;2023-05-07T09:20:01;29.80;;;21.15;;
53843;SDS011;39744;53.314;5.710;2023-05-07T09:22:29;31.13;;;21.48;;
53843;SDS011;39744;53.314;5.710;2023-05-07T09:24:58;32.35;;;21.33;;
53843;SDS011;39744;53.314;5.710;2023-05-07T09:27:25;28.50;;;19.95;;
53843;SDS011;39744;53.314;5.710;2023-05-07T09:29:51;30.77;;;20.63;;
53843;SDS011;39744;53.314;5.710;2023-05-07T09:32:17;29.30;;;20.58;;
53843;SDS011;39744;53.314;5.710;2023-05-07T09:34:43;27.33;;;20.80;;
53843;SDS011;39744;53.314;5.710;2023-05-07T09:37:10;30.25;;;21.77;;
53843;SDS011;39744;53.314;5.710;2023-05-07T09:39:47;27.13;;;19.83;;
53843;SDS011;39744;53.314;5.710;2023-05-07T09:42:13;27.27;;;19.63;;
53843;SDS011;39744;53.314;5.710;2023-05-07T09:44:40;26.98;;;19.73;;
53843;SDS011;39744;53.314;5.710;2023-05-07T09:47:06;30.40;;;20.38;;
53843;SDS011;39744;53.314;5.710;2023-05-07T09:49:33;27.20;;;19.75;;
53843;SDS011;39744;53.314;5.710;2023-05-07T09:52:02;26.38;;;18.40;;
53843;SDS011;39744;53.314;5.710;2023-05-07T09:54:31;27.08;;;19.92;;
53843;SDS011;39744;53.314;5.710;2023-05-07T09:56:58;25.77;;;19.13;;
53843;SDS011;39744;53.314;5.710;2023-05-07T09:59:26;26.73;;;19.52;;
53843;SDS011;39744;53.314;5.710;2023-05-07T10:01:52;29.02;;;19.63;;
53843;SDS011;39744;53.314;5.710;2023-05-07T10:04:22;30.67;;;21.63;;
53843;SDS011;39744;53.314;5.710;2023-05-07T10:06:48;30.73;;;20.58;;
53843;SDS011;39744;53.314;5.710;2023-05-07T10:09:15;28.08;;;20.50;;
53843;SDS011;39744;53.314;5.710;2023-05-07T10:11:41;29.65;;;19.92;;
53843;SDS011;39744;53.314;5.710;2023-05-07T10:14:08;28.65;;;19.40;;
53843;SDS011;39744;53.314;5.710;2023-05-07T10:16:35;26.60;;;19.23;;
53843;SDS011;39744;53.314;5.710;2023-05-07T10:19:06;28.05;;;20.15;;
53843;SDS011;39744;53.314;5.710;2023-05-07T10:21:35;24.23;;;18.90;;
53843;SDS011;39744;53.314;5.710;2023-05-07T10:24:04;25.02;;;19.13;;
53843;SDS011;39744;53.314;5.710;2023-05-07T10:26:35;25.27;;;18.30;;
53843;SDS011;39744;53.314;5.710;2023-05-07T10:29:04;28.25;;;19.67;;
53843;SDS011;39744;53.314;5.710;2023-05-07T10:34:16;23.90;;;18.00;;
53843;SDS011;39744;53.314;5.710;2023-05-07T10:36:44;26.63;;;19.10;;
53843;SDS011;39744;53.314;5.710;2023-05-07T10:39:10;25.65;;;18.20;;
53843;SDS011;39744;53.314;5.710;2023-05-07T10:41:36;25.73;;;18.30;;
53843;SDS011;39744;53.314;5.710;2023-05-07T10:44:02;24.95;;;18.30;;
53843;SDS011;39744;53.314;5.710;2023-05-07T10:46:28;28.02;;;19.17;;
53843;SDS011;39744;53.314;5.710;2023-05-07T10:51:28;23.75;;;18.65;;
53843;SDS011;39744;53.314;5.710;2023-05-07T10:56:33;24.10;;;17.10;;
53843;SDS011;39744;53.314;5.710;2023-05-07T10:59:29;23.17;;;17.85;;
53843;SDS011;39744;53.314;5.710;2023-05-07T11:01:49;24.15;;;18.83;;
53843;SDS011;39744;53.314;5.710;2023-05-07T11:04:15;25.52;;;18.40;;
53843;SDS011;39744;53.314;5.710;2023-05-07T11:06:52;28.65;;;19.45;;
53843;SDS011;39744;53.314;5.710;2023-05-07T11:12:13;27.80;;;18.70;;
53843;SDS011;39744;53.314;5.710;2023-05-07T11:17:08;24.00;;;18.85;;
53843;SDS011;39744;53.314;5.710;2023-05-07T11:19:50;26.23;;;19.33;;
53843;SDS011;39744;53.314;5.710;2023-05-07T11:24:59;24.42;;;19.08;;
53843;SDS011;39744;53.314;5.710;2023-05-07T11:27:26;26.90;;;20.15;;
53843;SDS011;39744;53.314;5.710;2023-05-07T11:29:52;27.77;;;19.35;;
53843;SDS011;39744;53.314;5.710;2023-05-07T11:32:27;27.20;;;19.42;;
53843;SDS011;39744;53.314;5.710;2023-05-07T11:35:02;25.27;;;18.88;;
53843;SDS011;39744;53.314;5.710;2023-05-07T11:37:28;26.35;;;19.30;;
53843;SDS011;39744;53.314;5.710;2023-05-07T11:40:08;27.17;;;19.27;;
53843;SDS011;39744;53.314;5.710;2023-05-07T11:42:39;26.02;;;18.88;;
53843;SDS011;39744;53.314;5.710;2023-05-07T11:45:06;25.95;;;18.85;;
53843;SDS011;39744;53.314;5.710;2023-05-07T11:47:33;25.42;;;17.38;;
53843;SDS011;39744;53.314;5.710;2023-05-07T11:50:03;24.90;;;17.10;;
53843;SDS011;39744;53.314;5.710;2023-05-07T11:52:30;25.83;;;18.50;;
53843;SDS011;39744;53.314;5.710;2023-05-07T11:54:57;26.38;;;18.70;;
53843;SDS011;39744;53.314;5.710;2023-05-07T11:57:25;24.67;;;18.77;;
53843;SDS011;39744;53.314;5.710;2023-05-07T11:59:54;24.67;;;19.15;;
53843;SDS011;39744;53.314;5.710;2023-05-07T12:02:21;25.02;;;17.98;;
53843;SDS011;39744;53.314;5.710;2023-05-07T12:04:46;24.83;;;18.08;;
53843;SDS011;39744;53.314;5.710;2023-05-07T12:07:13;26.67;;;18.42;;
53843;SDS011;39744;53.314;5.710;2023-05-07T12:09:40;22.75;;;17.88;;
53843;SDS011;39744;53.314;5.710;2023-05-07T12:12:06;24.52;;;18.35;;
53843;SDS011;39744;53.314;5.710;2023-05-07T12:14:32;29.58;;;17.45;;
53843;SDS011;39744;53.314;5.710;2023-05-07T12:16:59;23.80;;;18.90;;
53843;SDS011;39744;53.314;5.710;2023-05-07T12:19:28;23.50;;;17.67;;
53843;SDS011;39744;53.314;5.710;2023-05-07T12:21:54;25.75;;;18.05;;
53843;SDS011;39744;53.314;5.710;2023-05-07T12:24:21;23.30;;;17.48;;
53843;SDS011;39744;53.314;5.710;2023-05-07T12:26:47;21.30;;;15.65;;
53843;SDS011;39744;53.314;5.710;2023-05-07T12:29:14;22.05;;;15.85;;
53843;SDS011;39744;53.314;5.710;2023-05-07T12:31:41;20.63;;;14.18;;
53843;SDS011;39744;53.314;5.710;2023-05-07T12:34:07;21.30;;;15.63;;
53843;SDS011;39744;53.314;5.710;2023-05-07T12:36:36;20.65;;;15.18;;
53843;SDS011;39744;53.314;5.710;2023-05-07T12:39:04;20.55;;;15.80;;
53843;SDS011;39744;53.314;5.710;2023-05-07T12:41:30;24.98;;;17.92;;
53843;SDS011;39744;53.314;5.710;2023-05-07T12:43:56;22.85;;;16.95;;
53843;SDS011;39744;53.314;5.710;2023-05-07T12:46:23;24.77;;;17.10;;
53843;SDS011;39744;53.314;5.710;2023-05-07T12:48:49;21.85;;;16.52;;
53843;SDS011;39744;53.314;5.710;2023-05-07T12:51:15;19.35;;;15.80;;
53843;SDS011;39744;53.314;5.710;2023-05-07T12:53:42;23.35;;;15.38;;
53843;SDS011;39744;53.314;5.710;2023-05-07T12:56:08;23.15;;;16.70;;
53843;SDS011;39744;53.314;5.710;2023-05-07T12:58:35;19.60;;;15.43;;
53843;SDS011;39744;53.314;5.710;2023-05-07T13:01:04;19.00;;;13.80;;
53843;SDS011;39744;53.314;5.710;2023-05-07T13:03:31;19.50;;;14.10;;
53843;SDS011;39744;53.314;5.710;2023-05-07T13:05:58;18.27;;;14.00;;
53843;SDS011;39744;53.314;5.710;2023-05-07T13:08:26;19.60;;;12.70;;
53843;SDS011;39744;53.314;5.710;2023-05-07T13:10:52;19.15;;;14.05;;
53843;SDS011;39744;53.314;5.710;2023-05-07T13:13:18;18.95;;;13.40;;
53843;SDS011;39744;53.314;5.710;2023-05-07T13:15:45;23.02;;;14.82;;
53843;SDS011;39744;53.314;5.710;2023-05-07T13:18:11;18.42;;;15.18;;
53843;SDS011;39744;53.314;5.710;2023-05-07T13:20:37;21.83;;;15.55;;
53843;SDS011;39744;53.314;5.710;2023-05-07T13:23:03;18.77;;;14.35;;
53843;SDS011;39744;53.314;5.710;2023-05-07T13:25:29;20.02;;;14.48;;
53843;SDS011;39744;53.314;5.710;2023-05-07T13:27:57;21.00;;;15.13;;
53843;SDS011;39744;53.314;5.710;2023-05-07T13:30:23;19.00;;;14.90;;
53843;SDS011;39744;53.314;5.710;2023-05-07T13:32:49;19.67;;;16.35;;
53843;SDS011;39744;53.314;5.710;2023-05-07T13:35:17;20.23;;;14.57;;
53843;SDS011;39744;53.314;5.710;2023-05-07T13:37:43;21.90;;;15.52;;
53843;SDS011;39744;53.314;5.710;2023-05-07T13:40:09;17.52;;;14.63;;
53843;SDS011;39744;53.314;5.710;2023-05-07T13:42:35;21.25;;;16.17;;
53843;SDS011;39744;53.314;5.710;2023-05-07T13:45:01;18.92;;;14.85;;
53843;SDS011;39744;53.314;5.710;2023-05-07T13:47:29;18.63;;;14.55;;
53843;SDS011;39744;53.314;5.710;2023-05-07T13:49:56;18.05;;;14.75;;
53843;SDS011;39744;53.314;5.710;2023-05-07T13:52:22;19.95;;;15.57;;
53843;SDS011;39744;53.314;5.710;2023-05-07T13:54:48;18.98;;;13.95;;
53843;SDS011;39744;53.314;5.710;2023-05-07T13:57:17;18.38;;;14.15;;
53843;SDS011;39744;53.314;5.710;2023-05-07T13:59:43;21.33;;;15.30;;
53843;SDS011;39744;53.314;5.710;2023-05-07T14:02:09;18.95;;;14.38;;
53843;SDS011;39744;53.314;5.710;2023-05-07T14:04:37;20.35;;;15.18;;
53843;SDS011;39744;53.314;5.710;2023-05-07T14:07:03;19.23;;;14.85;;
53843;SDS011;39744;53.314;5.710;2023-05-07T14:09:29;19.80;;;15.20;;
53843;SDS011;39744;53.314;5.710;2023-05-07T14:11:55;19.55;;;15.30;;
53843;SDS011;39744;53.314;5.710;2023-05-07T14:14:21;20.55;;;15.02;;
53843;SDS011;39744;53.314;5.710;2023-05-07T14:16:47;20.20;;;15.15;;
53843;SDS011;39744;53.314;5.710;2023-05-07T14:19:15;16.45;;;14.10;;
53843;SDS011;39744;53.314;5.710;2023-05-07T14:21:41;19.83;;;14.52;;
53843;SDS011;39744;53.314;5.710;2023-05-07T14:24:07;18.50;;;14.45;;
53843;SDS011;39744;53.314;5.710;2023-05-07T14:26:33;17.70;;;13.93;;
53843;SDS011;39744;53.314;5.710;2023-05-07T14:29:00;18.30;;;14.15;;
53843;SDS011;39744;53.314;5.710;2023-05-07T14:31:26;18.40;;;14.45;;
53843;SDS011;39744;53.314;5.710;2023-05-07T14:33:52;17.73;;;13.88;;
53843;SDS011;39744;53.314;5.710;2023-05-07T14:36:18;17.75;;;14.23;;
53843;SDS011;39744;53.314;5.710;2023-05-07T14:38:50;20.52;;;14.38;;